sensor_id;sensor_type;location;lat;lon;timestamp;pressure;altitude;pressure_sealevel;temperature;humidity
33554;BME280;19885;42.208;24.952;2022-07-17T00:01:39;99993.25;;;26.79;59.43
33554;BME280;19885;42.208;24.952;2022-07-17T00:04:05;99963.47;;;26.54;60.41
33554;BME280;19885;42.208;24.952;2022-07-17T00:06:30;99992.63;;;26.58;60.05
33554;BME280;19885;42.208;24.952;2022-07-17T00:08:58;100000.31;;;26.64;59.56
33554;BME280;19885;42.208;24.952;2022-07-17T00:11:24;99989.28;;;26.55;56.26
33554;BME280;19885;42.208;24.952;2022-07-17T00:13:53;100001.44;;;26.60;56.78
33554;BME280;19885;42.208;24.952;2022-07-17T00:16:19;99991.25;;;26.51;58.63
33554;BME280;19885;42.208;24.952;2022-07-17T00:18:49;99962.56;;;26.39;59.98
33554;BME280;19885;42.208;24.952;2022-07-17T00:21:15;100002.81;;;26.52;58.12
33554;BME280;19885;42.208;24.952;2022-07-17T00:23:41;100004.72;;;26.50;58.48
33554;BME280;19885;42.208;24.952;2022-07-17T00:26:07;100002.97;;;26.33;59.70
33554;BME280;19885;42.208;24.952;2022-07-17T00:28:33;100008.69;;;26.43;59.63
33554;BME280;19885;42.208;24.952;2022-07-17T00:30:59;99994.19;;;26.31;59.40
33554;BME280;19885;42.208;24.952;2022-07-17T00:33:24;100007.91;;;26.41;59.39
33554;BME280;19885;42.208;24.952;2022-07-17T00:35:50;100007.47;;;26.33;57.61
33554;BME280;19885;42.208;24.952;2022-07-17T00:38:16;99986.34;;;25.95;57.11
33554;BME280;19885;42.208;24.952;2022-07-17T00:40:42;99988.25;;;25.43;59.25
33554;BME280;19885;42.208;24.952;2022-07-17T00:43:08;99989.03;;;25.45;59.68
33554;BME280;19885;42.208;24.952;2022-07-17T00:45:33;99963.75;;;25.18;60.01
33554;BME280;19885;42.208;24.952;2022-07-17T00:48:02;99992.34;;;25.51;60.13
33554;BME280;19885;42.208;24.952;2022-07-17T00:50:33;99997.53;;;25.69;59.75
33554;BME280;19885;42.208;24.952;2022-07-17T00:53:00;99999.94;;;25.91;59.31
33554;BME280;19885;42.208;24.952;2022-07-17T00:55:26;100015.53;;;26.15;59.26
33554;BME280;19885;42.208;24.952;2022-07-17T00:57:52;99993.78;;;26.06;59.14
33554;BME280;19885;42.208;24.952;2022-07-17T01:00:21;100007.28;;;26.20;60.35
33554;BME280;19885;42.208;24.952;2022-07-17T01:02:52;100034.13;;;26.34;60.27
33554;BME280;19885;42.208;24.952;2022-07-17T01:05:20;100031.91;;;25.60;62.13
33554;BME280;19885;42.208;24.952;2022-07-17T01:07:47;100035.16;;;24.77;64.43
33554;BME280;19885;42.208;24.952;2022-07-17T01:10:14;100030.78;;;25.12;61.55
33554;BME280;19885;42.208;24.952;2022-07-17T01:12:43;100019.97;;;25.49;61.18
33554;BME280;19885;42.208;24.952;2022-07-17T01:15:10;100040.34;;;24.81;62.75
33554;BME280;19885;42.208;24.952;2022-07-17T01:17:36;99944.59;;;24.01;62.25
33554;BME280;19885;42.208;24.952;2022-07-17T01:20:07;100030.78;;;25.12;60.04
33554;BME280;19885;42.208;24.952;2022-07-17T01:23:02;100049.75;;;25.40;59.33
33554;BME280;19885;42.208;24.952;2022-07-17T01:25:28;100033.31;;;23.83;62.34
33554;BME280;19885;42.208;24.952;2022-07-17T01:27:57;100049.44;;;23.80;63.50
33554;BME280;19885;42.208;24.952;2022-07-17T01:30:26;100062.31;;;22.86;65.92
33554;BME280;19885;42.208;24.952;2022-07-17T01:32:51;100056.22;;;23.87;62.01
33554;BME280;19885;42.208;24.952;2022-07-17T01:35:18;100058.47;;;23.96;61.74
33554;BME280;19885;42.208;24.952;2022-07-17T01:37:44;100063.28;;;23.48;64.35
33554;BME280;19885;42.208;24.952;2022-07-17T01:40:11;100029.16;;;22.51;66.27
33554;BME280;19885;42.208;24.952;2022-07-17T01:42:49;100065.66;;;23.34;64.53
33554;BME280;19885;42.208;24.952;2022-07-17T01:45:16;100057.06;;;24.08;60.76
33554;BME280;19885;42.208;24.952;2022-07-17T01:47:43;100051.56;;;24.50;60.51
33554;BME280;19885;42.208;24.952;2022-07-17T01:50:09;100053.22;;;24.71;59.15
33554;BME280;19885;42.208;24.952;2022-07-17T01:52:38;100049.97;;;24.83;58.48
33554;BME280;19885;42.208;24.952;2022-07-17T01:55:05;100041.06;;;24.84;58.32
33554;BME280;19885;42.208;24.952;2022-07-17T01:57:31;100015.13;;;24.69;58.04
33554;BME280;19885;42.208;24.952;2022-07-17T01:59:57;100029.59;;;24.82;56.34
33554;BME280;19885;42.208;24.952;2022-07-17T02:02:22;100047.38;;;25.00;56.04
33554;BME280;19885;42.208;24.952;2022-07-17T02:04:48;100046.28;;;25.04;56.51
33554;BME280;19885;42.208;24.952;2022-07-17T02:07:15;100041.28;;;25.15;58.33
33554;BME280;19885;42.208;24.952;2022-07-17T02:09:41;100053.03;;;25.28;59.15
33554;BME280;19885;42.208;24.952;2022-07-17T02:12:07;100050.31;;;25.30;57.46
33554;BME280;19885;42.208;24.952;2022-07-17T02:14:35;100046.88;;;25.28;56.68
33554;BME280;19885;42.208;24.952;2022-07-17T02:17:01;100057.81;;;25.22;57.53
33554;BME280;19885;42.208;24.952;2022-07-17T02:19:26;100050.56;;;25.25;58.50
33554;BME280;19885;42.208;24.952;2022-07-17T02:21:52;100048.75;;;25.26;57.38
33554;BME280;19885;42.208;24.952;2022-07-17T02:24:20;100038.53;;;25.17;57.37
33554;BME280;19885;42.208;24.952;2022-07-17T02:26:45;100050.69;;;25.22;58.02
33554;BME280;19885;42.208;24.952;2022-07-17T02:29:11;100041.28;;;25.15;57.94
33554;BME280;19885;42.208;24.952;2022-07-17T02:31:36;100063.09;;;25.23;58.08
33554;BME280;19885;42.208;24.952;2022-07-17T02:34:02;100065.00;;;25.21;57.85
33554;BME280;19885;42.208;24.952;2022-07-17T02:36:28;100062.78;;;25.12;57.43
33554;BME280;19885;42.208;24.952;2022-07-17T02:38:54;100060.78;;;24.99;56.36
33554;BME280;19885;42.208;24.952;2022-07-17T02:41:22;100046.69;;;24.78;56.55
33554;BME280;19885;42.208;24.952;2022-07-17T02:43:50;100063.25;;;24.66;57.22
33554;BME280;19885;42.208;24.952;2022-07-17T02:46:16;100062.97;;;24.35;58.26
33554;BME280;19885;42.208;24.952;2022-07-17T02:48:42;100059.06;;;24.42;58.66
33554;BME280;19885;42.208;24.952;2022-07-17T02:51:08;100070.44;;;24.64;58.50
33554;BME280;19885;42.208;24.952;2022-07-17T02:53:33;100042.50;;;24.54;57.20
33554;BME280;19885;42.208;24.952;2022-07-17T02:55:59;100074.38;;;24.75;58.01
33554;BME280;19885;42.208;24.952;2022-07-17T02:58:25;100076.97;;;24.77;57.84
33554;BME280;19885;42.208;24.952;2022-07-17T03:00:51;100083.22;;;23.16;63.00
33554;BME280;19885;42.208;24.952;2022-07-17T03:03:17;100077.66;;;23.01;63.20
33554;BME280;19885;42.208;24.952;2022-07-17T03:05:45;100087.63;;;22.26;65.44
33554;BME280;19885;42.208;24.952;2022-07-17T03:08:11;100090.25;;;22.51;64.23
33554;BME280;19885;42.208;24.952;2022-07-17T03:10:37;100074.94;;;22.81;62.59
33554;BME280;19885;42.208;24.952;2022-07-17T03:13:03;100082.91;;;22.81;63.25
33554;BME280;19885;42.208;24.952;2022-07-17T03:15:30;100087.28;;;23.47;61.36
33554;BME280;19885;42.208;24.952;2022-07-17T03:17:55;100095.44;;;23.64;60.16
33554;BME280;19885;42.208;24.952;2022-07-17T03:20:21;100096.81;;;23.30;61.48
33554;BME280;19885;42.208;24.952;2022-07-17T03:22:47;100090.19;;;23.82;60.01
33554;BME280;19885;42.208;24.952;2022-07-17T03:25:12;100099.28;;;23.57;61.00
33554;BME280;19885;42.208;24.952;2022-07-17T03:27:41;100094.31;;;23.89;60.04
33554;BME280;19885;42.208;24.952;2022-07-17T03:30:09;100086.63;;;22.98;61.72
33554;BME280;19885;42.208;24.952;2022-07-17T03:32:37;100102.84;;;23.56;61.21
33554;BME280;19885;42.208;24.952;2022-07-17T03:35:03;100086.44;;;23.86;60.32
33554;BME280;19885;42.208;24.952;2022-07-17T03:37:29;100071.47;;;23.84;60.60
33554;BME280;19885;42.208;24.952;2022-07-17T03:39:55;100101.53;;;23.86;60.92
33554;BME280;19885;42.208;24.952;2022-07-17T03:42:20;100099.44;;;24.14;59.71
33554;BME280;19885;42.208;24.952;2022-07-17T03:44:46;100109.19;;;24.34;59.35
33554;BME280;19885;42.208;24.952;2022-07-17T03:47:12;100088.66;;;24.36;59.33
33554;BME280;19885;42.208;24.952;2022-07-17T03:49:37;100102.94;;;24.53;59.17
33554;BME280;19885;42.208;24.952;2022-07-17T03:52:03;100100.66;;;24.64;58.02
33554;BME280;19885;42.208;24.952;2022-07-17T03:54:29;100070.94;;;24.53;58.17
33554;BME280;19885;42.208;24.952;2022-07-17T03:56:55;100104.19;;;24.84;58.05
33554;BME280;19885;42.208;24.952;2022-07-17T03:59:20;100088.72;;;24.71;58.96
33554;BME280;19885;42.208;24.952;2022-07-17T04:01:46;100117.81;;;24.96;57.54
33554;BME280;19885;42.208;24.952;2022-07-17T04:04:13;100111.91;;;24.90;58.30
33554;BME280;19885;42.208;24.952;2022-07-17T04:06:38;100121.78;;;24.88;58.61
33554;BME280;19885;42.208;24.952;2022-07-17T04:09:05;100122.06;;;25.00;58.55
33554;BME280;19885;42.208;24.952;2022-07-17T04:11:30;100134.16;;;25.07;58.59
33554;BME280;19885;42.208;24.952;2022-07-17T04:13:56;100132.94;;;25.14;58.78
33554;BME280;19885;42.208;24.952;2022-07-17T04:16:25;100108.63;;;25.02;58.65
33554;BME280;19885;42.208;24.952;2022-07-17T04:18:53;100141.19;;;25.27;58.69
33554;BME280;19885;42.208;24.952;2022-07-17T04:22:52;100136.59;;;25.30;56.56
33554;BME280;19885;42.208;24.952;2022-07-17T04:25:17;100143.16;;;25.23;56.44
33554;BME280;19885;42.208;24.952;2022-07-17T04:27:52;100127.78;;;24.54;57.70
33554;BME280;19885;42.208;24.952;2022-07-17T04:30:18;100120.44;;;24.00;60.13
33554;BME280;19885;42.208;24.952;2022-07-17T04:32:43;100136.84;;;23.49;62.58
33554;BME280;19885;42.208;24.952;2022-07-17T04:37:44;100123.16;;;22.72;64.38
33554;BME280;19885;42.208;24.952;2022-07-17T04:40:10;100151.78;;;23.08;64.56
33554;BME280;19885;42.208;24.952;2022-07-17T04:42:36;100157.56;;;22.75;65.65
33554;BME280;19885;42.208;24.952;2022-07-17T04:45:02;100158.53;;;22.72;66.32
33554;BME280;19885;42.208;24.952;2022-07-17T04:47:28;100159.84;;;23.07;65.25
33554;BME280;19885;42.208;24.952;2022-07-17T04:49:54;100165.97;;;22.86;65.38
33554;BME280;19885;42.208;24.952;2022-07-17T04:52:19;100167.09;;;23.25;64.58
33554;BME280;19885;42.208;24.952;2022-07-17T04:54:45;100165.63;;;22.48;67.08
33554;BME280;19885;42.208;24.952;2022-07-17T04:57:10;100171.44;;;22.58;66.75
33554;BME280;19885;42.208;24.952;2022-07-17T04:59:36;100166.94;;;22.61;67.28
33554;BME280;19885;42.208;24.952;2022-07-17T05:02:04;100167.00;;;22.60;67.29
33554;BME280;19885;42.208;24.952;2022-07-17T05:04:30;100162.88;;;22.75;66.57
33554;BME280;19885;42.208;24.952;2022-07-17T05:06:56;100169.47;;;22.64;67.01
33554;BME280;19885;42.208;24.952;2022-07-17T05:09:21;100168.88;;;22.80;66.17
33554;BME280;19885;42.208;24.952;2022-07-17T05:11:47;100155.41;;;22.84;65.86
33554;BME280;19885;42.208;24.952;2022-07-17T05:14:13;100172.09;;;23.11;65.63
33554;BME280;19885;42.208;24.952;2022-07-17T05:16:38;100167.09;;;23.03;65.28
33554;BME280;19885;42.208;24.952;2022-07-17T05:19:04;100176.31;;;23.16;64.08
33554;BME280;19885;42.208;24.952;2022-07-17T05:21:30;100182.97;;;23.26;62.98
33554;BME280;19885;42.208;24.952;2022-07-17T05:23:56;100180.75;;;23.39;62.15
33554;BME280;19885;42.208;24.952;2022-07-17T05:26:23;100192.63;;;23.52;62.27
33554;BME280;19885;42.208;24.952;2022-07-17T05:28:49;100179.66;;;23.65;61.64
33554;BME280;19885;42.208;24.952;2022-07-17T05:31:15;100191.09;;;23.88;61.18
33554;BME280;19885;42.208;24.952;2022-07-17T05:33:40;100194.25;;;24.18;60.20
33554;BME280;19885;42.208;24.952;2022-07-17T05:36:06;100179.06;;;24.40;59.39
33554;BME280;19885;42.208;24.952;2022-07-17T05:38:31;100186.19;;;24.40;58.96
33554;BME280;19885;42.208;24.952;2022-07-17T05:40:57;100181.78;;;24.39;56.74
33554;BME280;19885;42.208;24.952;2022-07-17T05:43:22;100185.75;;;24.49;56.56
33554;BME280;19885;42.208;24.952;2022-07-17T05:45:48;100181.63;;;24.62;56.15
33554;BME280;19885;42.208;24.952;2022-07-17T05:48:13;100180.94;;;24.77;55.82
33554;BME280;19885;42.208;24.952;2022-07-17T05:50:39;100185.06;;;25.03;53.70
33554;BME280;19885;42.208;24.952;2022-07-17T05:56:27;100187.09;;;25.16;53.32
33554;BME280;19885;42.208;24.952;2022-07-17T05:58:53;100190.16;;;25.44;52.06
33554;BME280;19885;42.208;24.952;2022-07-17T06:01:18;100200.66;;;25.30;52.86
33554;BME280;19885;42.208;24.952;2022-07-17T06:03:44;100180.31;;;25.28;51.85
33554;BME280;19885;42.208;24.952;2022-07-17T06:06:09;100187.31;;;25.66;52.49
33554;BME280;19885;42.208;24.952;2022-07-17T06:08:35;100200.44;;;25.71;52.64
33554;BME280;19885;42.208;24.952;2022-07-17T06:11:00;100198.47;;;25.57;51.67
33554;BME280;19885;42.208;24.952;2022-07-17T06:13:26;100195.75;;;25.76;51.75
33554;BME280;19885;42.208;24.952;2022-07-17T06:15:51;100194.00;;;25.75;51.94
33554;BME280;19885;42.208;24.952;2022-07-17T06:18:16;100197.63;;;25.91;51.72
33554;BME280;19885;42.208;24.952;2022-07-17T06:20:42;100180.69;;;25.92;48.84
33554;BME280;19885;42.208;24.952;2022-07-17T06:23:07;100195.59;;;25.96;51.10
33554;BME280;19885;42.208;24.952;2022-07-17T06:25:33;100192.81;;;26.16;51.26
33554;BME280;19885;42.208;24.952;2022-07-17T06:27:58;100187.31;;;26.19;49.99
33554;BME280;19885;42.208;24.952;2022-07-17T06:30:24;100178.47;;;26.17;49.04
33554;BME280;19885;42.208;24.952;2022-07-17T06:32:49;100180.81;;;26.40;50.06
33554;BME280;19885;42.208;24.952;2022-07-17T06:35:15;100176.81;;;26.32;49.25
33554;BME280;19885;42.208;24.952;2022-07-17T06:37:40;100159.22;;;26.77;48.39
33554;BME280;19885;42.208;24.952;2022-07-17T06:40:06;100175.63;;;26.87;46.89
33554;BME280;19885;42.208;24.952;2022-07-17T06:42:32;100175.78;;;26.84;46.44
33554;BME280;19885;42.208;24.952;2022-07-17T06:44:57;100178.63;;;26.97;45.96
33554;BME280;19885;42.208;24.952;2022-07-17T06:47:22;100175.00;;;26.82;45.15
33554;BME280;19885;42.208;24.952;2022-07-17T06:49:48;100127.38;;;26.56;45.20
33554;BME280;19885;42.208;24.952;2022-07-17T06:52:13;100177.19;;;27.07;44.54
33554;BME280;19885;42.208;24.952;2022-07-17T06:54:39;100173.88;;;27.33;45.34
33554;BME280;19885;42.208;24.952;2022-07-17T06:57:04;100180.97;;;27.34;45.50
33554;BME280;19885;42.208;24.952;2022-07-17T06:59:30;100174.19;;;27.89;43.74
33554;BME280;19885;42.208;24.952;2022-07-17T07:01:55;100156.25;;;27.60;42.77
33554;BME280;19885;42.208;24.952;2022-07-17T07:04:21;100180.22;;;27.47;42.71
33554;BME280;19885;42.208;24.952;2022-07-17T07:06:46;100186.00;;;27.55;43.56
33554;BME280;19885;42.208;24.952;2022-07-17T07:09:12;100183.53;;;27.82;42.67
33554;BME280;19885;42.208;24.952;2022-07-17T07:11:38;100189.88;;;27.66;42.29
33554;BME280;19885;42.208;24.952;2022-07-17T07:14:07;100187.00;;;27.84;41.76
33554;BME280;19885;42.208;24.952;2022-07-17T07:16:33;100194.06;;;27.85;41.66
33554;BME280;19885;42.208;24.952;2022-07-17T07:18:59;100193.19;;;28.00;42.51
33554;BME280;19885;42.208;24.952;2022-07-17T07:21:25;100191.53;;;28.27;41.27
33554;BME280;19885;42.208;24.952;2022-07-17T07:23:52;100191.81;;;27.93;41.87
33554;BME280;19885;42.208;24.952;2022-07-17T07:26:18;100203.44;;;28.08;42.82
33554;BME280;19885;42.208;24.952;2022-07-17T07:28:43;100194.31;;;27.96;42.00
33554;BME280;19885;42.208;24.952;2022-07-17T07:31:09;100196.09;;;28.11;40.81
33554;BME280;19885;42.208;24.952;2022-07-17T07:33:36;100187.59;;;28.19;39.08
33554;BME280;19885;42.208;24.952;2022-07-17T07:36:02;100188.09;;;28.25;37.88
33554;BME280;19885;42.208;24.952;2022-07-17T07:38:27;100200.19;;;28.33;37.72
33554;BME280;19885;42.208;24.952;2022-07-17T07:40:53;100182.75;;;28.54;37.65
33554;BME280;19885;42.208;24.952;2022-07-17T07:43:19;100193.19;;;28.44;37.58
33554;BME280;19885;42.208;24.952;2022-07-17T07:45:44;100190.91;;;28.52;38.35
33554;BME280;19885;42.208;24.952;2022-07-17T07:48:10;100197.16;;;28.81;37.37
33554;BME280;19885;42.208;24.952;2022-07-17T07:50:35;100202.06;;;28.74;32.89
33554;BME280;19885;42.208;24.952;2022-07-17T07:53:03;100192.63;;;29.24;33.58
33554;BME280;19885;42.208;24.952;2022-07-17T07:55:31;100198.19;;;29.07;30.90
33554;BME280;19885;42.208;24.952;2022-07-17T07:58:11;100196.75;;;29.15;31.81
33554;BME280;19885;42.208;24.952;2022-07-17T08:00:37;100201.16;;;29.16;32.14
33554;BME280;19885;42.208;24.952;2022-07-17T08:03:03;100200.97;;;29.33;30.64
33554;BME280;19885;42.208;24.952;2022-07-17T08:05:30;100199.59;;;29.40;30.41
33554;BME280;19885;42.208;24.952;2022-07-17T08:07:55;100195.56;;;29.47;30.21
33554;BME280;19885;42.208;24.952;2022-07-17T08:10:21;100202.66;;;29.48;28.22
33554;BME280;19885;42.208;24.952;2022-07-17T08:12:48;100207.16;;;29.75;28.92
33554;BME280;19885;42.208;24.952;2022-07-17T08:15:15;100201.66;;;29.90;28.40
33554;BME280;19885;42.208;24.952;2022-07-17T08:17:42;100206.72;;;29.95;26.28
33554;BME280;19885;42.208;24.952;2022-07-17T08:20:08;100202.22;;;30.08;27.89
33554;BME280;19885;42.208;24.952;2022-07-17T08:22:34;100211.34;;;29.93;28.03
33554;BME280;19885;42.208;24.952;2022-07-17T08:24:59;100197.31;;;30.14;25.11
33554;BME280;19885;42.208;24.952;2022-07-17T08:27:25;100188.13;;;30.17;25.53
33554;BME280;19885;42.208;24.952;2022-07-17T08:29:50;100190.97;;;30.28;25.26
33554;BME280;19885;42.208;24.952;2022-07-17T08:32:16;100206.19;;;30.54;24.69
33554;BME280;19885;42.208;24.952;2022-07-17T08:34:41;100198.00;;;30.56;24.54
33554;BME280;19885;42.208;24.952;2022-07-17T08:37:06;100202.09;;;30.61;29.92
33554;BME280;19885;42.208;24.952;2022-07-17T08:39:32;100201.13;;;30.50;30.25
33554;BME280;19885;42.208;24.952;2022-07-17T08:41:57;100193.19;;;30.48;30.57
33554;BME280;19885;42.208;24.952;2022-07-17T08:44:23;100197.66;;;30.35;32.52
33554;BME280;19885;42.208;24.952;2022-07-17T08:46:49;100195.97;;;30.34;31.76
33554;BME280;19885;42.208;24.952;2022-07-17T08:49:20;100199.88;;;30.16;30.79
33554;BME280;19885;42.208;24.952;2022-07-17T08:51:47;100184.63;;;30.29;28.95
33554;BME280;19885;42.208;24.952;2022-07-17T08:54:12;100192.28;;;30.35;30.39
33554;BME280;19885;42.208;24.952;2022-07-17T08:56:38;100151.34;;;30.05;28.77
33554;BME280;19885;42.208;24.952;2022-07-17T08:59:04;100193.56;;;30.29;26.59
33554;BME280;19885;42.208;24.952;2022-07-17T09:01:29;100181.28;;;30.25;26.94
33554;BME280;19885;42.208;24.952;2022-07-17T09:03:59;100195.63;;;30.51;27.49
33554;BME280;19885;42.208;24.952;2022-07-17T09:06:26;100193.44;;;30.31;27.25
33554;BME280;19885;42.208;24.952;2022-07-17T09:09:07;100188.00;;;30.45;26.18
33554;BME280;19885;42.208;24.952;2022-07-17T09:14:08;100194.47;;;30.55;26.55
33554;BME280;19885;42.208;24.952;2022-07-17T09:16:35;100188.84;;;30.58;25.92
33554;BME280;19885;42.208;24.952;2022-07-17T09:19:01;100195.72;;;30.62;27.04
33554;BME280;19885;42.208;24.952;2022-07-17T09:21:28;100189.94;;;30.68;25.99
33554;BME280;19885;42.208;24.952;2022-07-17T09:24:01;100189.50;;;30.74;25.90
33554;BME280;19885;42.208;24.952;2022-07-17T09:26:28;100187.88;;;30.72;25.40
33554;BME280;19885;42.208;24.952;2022-07-17T09:28:54;100189.91;;;30.81;25.71
33554;BME280;19885;42.208;24.952;2022-07-17T09:31:28;100183.25;;;30.86;25.41
33554;BME280;19885;42.208;24.952;2022-07-17T09:33:54;100181.94;;;30.79;25.09
33554;BME280;19885;42.208;24.952;2022-07-17T09:36:20;100188.22;;;30.92;24.53
33554;BME280;19885;42.208;24.952;2022-07-17T09:38:45;100147.38;;;30.86;25.81
33554;BME280;19885;42.208;24.952;2022-07-17T09:46:09;100176.97;;;31.11;25.11
33554;BME280;19885;42.208;24.952;2022-07-17T09:48:41;100183.16;;;31.37;26.52
33554;BME280;19885;42.208;24.952;2022-07-17T09:51:07;100185.19;;;31.46;25.26
33554;BME280;19885;42.208;24.952;2022-07-17T09:53:36;100186.66;;;31.73;24.09
33554;BME280;19885;42.208;24.952;2022-07-17T09:56:01;100184.50;;;31.55;24.51
33554;BME280;19885;42.208;24.952;2022-07-17T09:58:28;100192.13;;;31.61;25.90
33554;BME280;19885;42.208;24.952;2022-07-17T10:00:57;100183.50;;;31.56;25.74
33554;BME280;19885;42.208;24.952;2022-07-17T10:03:22;100185.13;;;31.58;25.90
33554;BME280;19885;42.208;24.952;2022-07-17T10:05:48;100188.97;;;31.67;24.45
33554;BME280;19885;42.208;24.952;2022-07-17T10:08:14;100186.72;;;31.61;25.58
33554;BME280;19885;42.208;24.952;2022-07-17T10:10:40;100181.53;;;31.70;25.24
33554;BME280;19885;42.208;24.952;2022-07-17T10:13:06;100169.81;;;31.59;24.02
33554;BME280;19885;42.208;24.952;2022-07-17T10:15:31;100174.66;;;31.66;24.63
33554;BME280;19885;42.208;24.952;2022-07-17T10:18:05;100172.28;;;31.62;25.04
33554;BME280;19885;42.208;24.952;2022-07-17T10:20:31;100149.00;;;31.61;26.31
33554;BME280;19885;42.208;24.952;2022-07-17T10:22:56;100180.41;;;31.97;23.73
33554;BME280;19885;42.208;24.952;2022-07-17T10:25:22;100174.25;;;31.95;25.69
33554;BME280;19885;42.208;24.952;2022-07-17T10:27:53;100172.56;;;31.94;24.27
33554;BME280;19885;42.208;24.952;2022-07-17T10:30:29;100167.22;;;31.81;25.22
33554;BME280;19885;42.208;24.952;2022-07-17T10:33:04;100145.34;;;31.97;24.44
33554;BME280;19885;42.208;24.952;2022-07-17T10:35:43;100154.19;;;31.99;24.03
33554;BME280;19885;42.208;24.952;2022-07-17T10:38:11;100154.75;;;32.26;25.69
33554;BME280;19885;42.208;24.952;2022-07-17T10:40:37;100155.97;;;32.22;24.18
33554;BME280;19885;42.208;24.952;2022-07-17T10:43:05;100144.06;;;32.24;23.58
33554;BME280;19885;42.208;24.952;2022-07-17T10:45:38;100143.34;;;32.33;22.65
33554;BME280;19885;42.208;24.952;2022-07-17T10:48:14;100140.69;;;32.67;24.78
33554;BME280;19885;42.208;24.952;2022-07-17T10:50:45;100131.38;;;32.71;24.66
33554;BME280;19885;42.208;24.952;2022-07-17T10:53:17;100146.09;;;32.67;23.02
33554;BME280;19885;42.208;24.952;2022-07-17T10:55:47;100142.19;;;32.71;22.50
33554;BME280;19885;42.208;24.952;2022-07-17T10:58:32;100134.31;;;32.57;23.34
33554;BME280;19885;42.208;24.952;2022-07-17T11:01:17;100141.69;;;32.55;23.18
33554;BME280;19885;42.208;24.952;2022-07-17T11:03:44;100126.72;;;32.51;24.94
33554;BME280;19885;42.208;24.952;2022-07-17T11:06:30;100131.03;;;32.64;23.99
33554;BME280;19885;42.208;24.952;2022-07-17T11:09:10;100129.06;;;32.66;24.73
33554;BME280;19885;42.208;24.952;2022-07-17T11:11:47;100129.13;;;32.31;25.37
33554;BME280;19885;42.208;24.952;2022-07-17T11:17:00;100126.47;;;32.65;25.55
33554;BME280;19885;42.208;24.952;2022-07-17T11:19:30;100116.25;;;32.90;25.70
33554;BME280;19885;42.208;24.952;2022-07-17T11:22:00;100120.03;;;32.99;24.82
33554;BME280;19885;42.208;24.952;2022-07-17T11:27:05;100117.38;;;32.88;24.95
33554;BME280;19885;42.208;24.952;2022-07-17T11:29:39;100120.09;;;32.77;24.60
33554;BME280;19885;42.208;24.952;2022-07-17T11:32:05;100119.34;;;32.75;23.52
33554;BME280;19885;42.208;24.952;2022-07-17T11:34:31;100104.50;;;33.02;22.20
33554;BME280;19885;42.208;24.952;2022-07-17T11:37:01;100097.38;;;32.79;24.18
33554;BME280;19885;42.208;24.952;2022-07-17T11:39:41;100090.63;;;32.63;23.89
33554;BME280;19885;42.208;24.952;2022-07-17T11:42:09;100098.69;;;32.96;25.31
33554;BME280;19885;42.208;24.952;2022-07-17T11:44:35;100097.44;;;33.22;25.14
33554;BME280;19885;42.208;24.952;2022-07-17T11:47:01;100095.91;;;32.64;24.87
33554;BME280;19885;42.208;24.952;2022-07-17T11:51:59;100100.94;;;31.55;26.46
33554;BME280;19885;42.208;24.952;2022-07-17T11:54:26;100087.75;;;32.09;24.67
33554;BME280;19885;42.208;24.952;2022-07-17T11:56:57;100091.09;;;32.79;22.22
33554;BME280;19885;42.208;24.952;2022-07-17T11:59:29;100104.69;;;32.99;24.26
33554;BME280;19885;42.208;24.952;2022-07-17T12:01:55;100090.00;;;32.37;26.62
33554;BME280;19885;42.208;24.952;2022-07-17T12:04:21;100091.81;;;32.92;23.44
33554;BME280;19885;42.208;24.952;2022-07-17T12:06:58;100101.00;;;33.23;22.15
33554;BME280;19885;42.208;24.952;2022-07-17T12:09:26;100097.56;;;33.21;25.52
33554;BME280;19885;42.208;24.952;2022-07-17T12:11:52;100035.47;;;32.87;23.82
33554;BME280;19885;42.208;24.952;2022-07-17T12:14:17;100098.84;;;32.72;22.84
33554;BME280;19885;42.208;24.952;2022-07-17T12:16:43;100079.03;;;33.16;20.76
33554;BME280;19885;42.208;24.952;2022-07-17T12:19:15;100090.31;;;33.21;23.53
33554;BME280;19885;42.208;24.952;2022-07-17T12:22:03;100045.44;;;32.65;25.48
33554;BME280;19885;42.208;24.952;2022-07-17T12:24:38;100073.53;;;33.38;23.18
33554;BME280;19885;42.208;24.952;2022-07-17T12:27:06;100084.94;;;33.73;20.90
33554;BME280;19885;42.208;24.952;2022-07-17T12:29:33;100084.56;;;33.57;22.54
33554;BME280;19885;42.208;24.952;2022-07-17T12:32:15;100089.44;;;33.63;20.30
33554;BME280;19885;42.208;24.952;2022-07-17T12:34:46;100088.78;;;33.39;22.35
33554;BME280;19885;42.208;24.952;2022-07-17T12:37:20;100084.28;;;33.60;23.22
33554;BME280;19885;42.208;24.952;2022-07-17T12:39:47;100079.59;;;33.62;20.87
33554;BME280;19885;42.208;24.952;2022-07-17T12:42:14;100085.31;;;33.48;21.77
33554;BME280;19885;42.208;24.952;2022-07-17T12:44:40;100083.13;;;33.31;21.54
33554;BME280;19885;42.208;24.952;2022-07-17T12:47:07;100033.03;;;33.27;23.07
33554;BME280;19885;42.208;24.952;2022-07-17T12:49:33;100091.66;;;33.58;22.43
33554;BME280;19885;42.208;24.952;2022-07-17T12:51:59;100075.44;;;33.58;21.57
33554;BME280;19885;42.208;24.952;2022-07-17T12:54:25;100084.44;;;33.48;21.57
33554;BME280;19885;42.208;24.952;2022-07-17T12:56:50;100086.41;;;33.57;21.47
33554;BME280;19885;42.208;24.952;2022-07-17T12:59:16;100082.47;;;33.50;20.74
33554;BME280;19885;42.208;24.952;2022-07-17T13:01:41;100075.38;;;33.69;22.12
33554;BME280;19885;42.208;24.952;2022-07-17T13:04:10;100037.03;;;33.33;21.63